Terminal Aerodrome Forecast
Issued by NWS State College, PA

Current Version | Previous Version | Text Only | Print | Product List | Glossary On
Versions: 1 2 3 4 5 6 7 8 9 10 11 12 13 14 15 16 17 18 19 20 21 22 23 24 25 26
000
FTUS41 KCTP 310245 AAA
TAFIPT
TAF AMD
KIPT 310245Z 3103/3124 10003KT 3SM SHRA BR SCT007 OVC015
     FM310430 10003KT 4SM BR OVC007
     FM310900 09002KT 1SM BR VCFG BKN003
     FM311300 VRB02KT 6SM HZ BKN025
     FM311700 25004KT P6SM BKN050=

USA.gov is the U.S. government's official web portal to all federal, state and local government web resources and services.